createdAt,value
2023-05-14T00:00:34.946Z,19.7767
2023-05-14T00:01:36.789Z,19.7701
2023-05-14T00:02:38.716Z,19.7810
2023-05-14T00:03:40.539Z,19.7761
2023-05-14T00:04:42.294Z,19.7561
2023-05-14T00:05:44.168Z,19.7715
2023-05-14T00:06:45.980Z,19.7756
2023-05-14T00:07:47.823Z,19.7754
2023-05-14T00:08:49.662Z,19.7839
2023-05-14T00:09:51.494Z,19.7945
2023-05-14T00:10:53.361Z,19.8048
2023-05-14T00:11:55.187Z,19.8042
2023-05-14T00:12:57.035Z,19.7908
2023-05-14T00:13:58.897Z,19.7935
2023-05-14T00:15:00.695Z,19.7802
2023-05-14T00:16:02.578Z,19.7789
2023-05-14T00:17:04.402Z,19.7613
2023-05-14T00:18:06.326Z,19.7430
2023-05-14T00:19:08.082Z,19.7237
2023-05-14T00:20:09.935Z,19.6941
2023-05-14T00:21:11.764Z,19.6986
2023-05-14T00:22:13.593Z,19.7072
2023-05-14T00:23:15.434Z,19.7046
2023-05-14T00:24:17.269Z,19.7068
2023-05-14T00:25:19.105Z,19.7278
2023-05-14T00:26:20.988Z,19.7268
2023-05-14T00:27:22.807Z,19.7290
2023-05-14T00:28:24.637Z,19.7245
2023-05-14T00:29:26.478Z,19.7288
2023-05-14T00:30:28.310Z,19.7428
2023-05-14T00:31:30.165Z,19.7574
2023-05-14T00:32:32.033Z,19.7617
2023-05-14T00:33:33.841Z,19.7650
2023-05-14T00:34:35.687Z,19.7391
2023-05-14T00:35:37.509Z,19.7438
2023-05-14T00:36:39.392Z,19.7095
2023-05-14T00:37:41.196Z,19.6970
2023-05-14T00:38:43.051Z,19.7181
2023-05-14T00:39:44.887Z,19.7050
2023-05-14T00:40:46.712Z,19.7350
2023-05-14T00:41:48.563Z,19.7093
2023-05-14T00:42:50.416Z,19.7210
2023-05-14T00:43:52.244Z,19.7317
2023-05-14T00:44:54.119Z,19.6970
2023-05-14T00:45:55.948Z,19.6867
2023-05-14T00:46:57.804Z,19.6830
2023-05-14T00:47:59.721Z,19.7015
2023-05-14T00:49:01.437Z,19.6916
2023-05-14T00:50:03.273Z,19.6832
2023-05-14T00:51:05.159Z,19.6957
2023-05-14T00:52:06.970Z,19.6970
2023-05-14T00:53:08.817Z,19.7206
2023-05-14T00:54:10.638Z,19.7226
2023-05-14T00:55:12.482Z,19.7504
2023-05-14T00:56:14.322Z,19.7707
2023-05-14T00:57:16.193Z,19.7863
2023-05-14T00:58:18.052Z,19.8011
2023-05-14T00:59:19.864Z,19.7804
2023-05-14T01:00:21.867Z,19.7563
2023-05-14T01:01:23.547Z,19.7543
2023-05-14T01:02:25.457Z,19.7849
2023-05-14T01:03:27.405Z,19.7900
2023-05-14T01:04:29.062Z,19.8157
2023-05-14T01:05:30.868Z,19.8217
2023-05-14T01:06:32.707Z,19.8217
2023-05-14T01:07:34.548Z,19.8011
2023-05-14T01:08:36.399Z,19.8087
2023-05-14T01:09:38.251Z,19.8009
2023-05-14T01:10:40.086Z,19.7952
2023-05-14T01:11:41.908Z,19.7783
2023-05-14T01:12:43.754Z,19.7639
2023-05-14T01:13:45.597Z,19.7563
2023-05-14T01:14:47.453Z,19.7459
2023-05-14T01:15:49.302Z,19.7524
2023-05-14T01:16:51.170Z,19.7732
2023-05-14T01:17:52.970Z,19.7980
2023-05-14T01:18:54.897Z,19.7746
2023-05-14T01:19:56.635Z,19.7674
2023-05-14T01:20:58.529Z,19.7843
2023-05-14T01:22:00.335Z,19.7906
2023-05-14T01:23:02.142Z,19.7929
2023-05-14T01:24:04.017Z,19.8019
2023-05-14T01:25:05.837Z,19.7929
2023-05-14T01:26:07.677Z,19.7902
2023-05-14T01:27:09.515Z,19.7465
2023-05-14T01:28:11.361Z,19.7327
2023-05-14T01:29:13.181Z,19.7358
2023-05-14T01:30:15.037Z,19.7563
2023-05-14T01:31:16.895Z,19.7543
2023-05-14T01:32:18.777Z,19.7500
2023-05-14T01:33:20.565Z,19.7212
2023-05-14T01:34:22.391Z,19.7175
2023-05-14T01:35:24.247Z,19.7200
2023-05-14T01:36:26.097Z,19.7035
2023-05-14T01:37:27.934Z,19.6945
2023-05-14T01:38:29.779Z,19.7331
2023-05-14T01:39:31.656Z,19.7241
2023-05-14T01:40:33.487Z,19.7050
2023-05-14T01:41:35.281Z,19.7068
2023-05-14T01:42:37.122Z,19.7155
2023-05-14T01:43:38.986Z,19.7005
2023-05-14T01:44:40.824Z,19.6770
2023-05-14T01:45:42.732Z,19.6419
2023-05-14T01:46:44.496Z,19.6602
2023-05-14T01:47:46.372Z,19.6886
2023-05-14T01:48:48.176Z,19.6664
2023-05-14T01:49:50.027Z,19.6740
2023-05-14T01:50:51.867Z,19.7111
2023-05-14T01:51:53.719Z,19.7204
2023-05-14T01:52:55.546Z,19.7165
2023-05-14T01:53:57.400Z,19.6738
2023-05-14T01:54:59.224Z,19.6851
2023-05-14T01:56:01.053Z,19.6775
2023-05-14T01:57:02.939Z,19.6758
2023-05-14T01:58:04.738Z,19.6697
2023-05-14T01:59:06.574Z,19.6588
2023-05-14T02:00:08.419Z,19.6736
2023-05-14T02:01:10.289Z,19.6994
2023-05-14T02:02:13.048Z,19.7031
2023-05-14T02:03:14.003Z,19.7266
2023-05-14T02:04:15.855Z,19.7370
2023-05-14T02:05:25.162Z,19.7446
2023-05-14T02:06:19.437Z,19.7536
2023-05-14T02:07:21.288Z,19.7424
2023-05-14T02:08:23.147Z,19.7454
2023-05-14T02:09:24.987Z,19.7376
2023-05-14T02:10:34.379Z,19.7498
2023-05-14T02:11:28.681Z,19.7621
2023-05-14T02:12:30.490Z,19.7286
2023-05-14T02:13:32.336Z,19.7370
2023-05-14T02:14:34.192Z,19.7239
2023-05-14T02:15:36.076Z,19.7362
2023-05-14T02:16:37.844Z,19.7339
2023-05-14T02:17:39.733Z,19.7403
2023-05-14T02:18:41.592Z,19.7598
2023-05-14T02:19:43.363Z,19.7695
2023-05-14T02:20:45.196Z,19.7769
2023-05-14T02:21:47.050Z,19.7617
2023-05-14T02:22:48.889Z,19.7471
2023-05-14T02:23:50.730Z,19.7668
2023-05-14T02:24:52.575Z,19.7738
2023-05-14T02:25:54.415Z,19.7524
2023-05-14T02:26:56.234Z,19.7795
2023-05-14T02:27:58.084Z,19.7818
2023-05-14T02:28:59.926Z,19.7935
2023-05-14T02:30:01.795Z,19.7874
2023-05-14T02:31:03.652Z,19.7937
2023-05-14T02:32:05.510Z,19.7775
2023-05-14T02:33:07.418Z,19.7730
2023-05-14T02:34:09.117Z,19.7641
2023-05-14T02:35:10.962Z,19.7514
2023-05-14T02:36:12.802Z,19.7381
2023-05-14T02:37:14.628Z,19.7374
2023-05-14T02:38:16.491Z,19.7185
2023-05-14T02:39:18.334Z,19.7300
2023-05-14T02:40:20.158Z,19.7479
2023-05-14T02:41:21.979Z,19.7387
2023-05-14T02:42:23.826Z,19.7335
2023-05-14T02:43:25.663Z,19.7284
2023-05-14T02:44:27.520Z,19.7116
2023-05-14T02:45:29.337Z,19.7095
2023-05-14T02:46:31.295Z,19.7042
2023-05-14T02:47:33.142Z,19.6758
2023-05-14T02:48:34.921Z,19.6910
2023-05-14T02:49:36.767Z,19.6925
2023-05-14T02:50:38.607Z,19.6768
2023-05-14T02:51:40.430Z,19.6653
2023-05-14T02:52:42.271Z,19.6941
2023-05-14T02:53:44.120Z,19.7237
2023-05-14T02:54:45.951Z,19.7284
2023-05-14T02:55:47.801Z,19.7418
2023-05-14T02:56:49.636Z,19.7438
2023-05-14T02:57:51.454Z,19.7609
2023-05-14T02:58:53.303Z,19.7457
2023-05-14T02:59:55.136Z,19.7245
2023-05-14T03:00:57.003Z,19.7054
2023-05-14T03:01:58.873Z,19.7157
2023-05-14T03:03:00.709Z,19.7056
2023-05-14T03:04:02.472Z,19.6840
2023-05-14T03:05:04.324Z,19.6918
2023-05-14T03:06:06.153Z,19.6721
2023-05-14T03:07:07.990Z,19.6604
2023-05-14T03:08:09.851Z,19.6992
2023-05-14T03:09:11.657Z,19.7068
2023-05-14T03:10:13.508Z,19.7305
2023-05-14T03:11:15.345Z,19.7489
2023-05-14T03:12:17.174Z,19.7391
2023-05-14T03:13:19.015Z,19.7401
2023-05-14T03:14:20.872Z,19.7385
2023-05-14T03:15:22.681Z,19.7409
2023-05-14T03:16:24.546Z,19.7450
2023-05-14T03:17:26.366Z,19.7323
2023-05-14T03:18:28.228Z,19.7284
2023-05-14T03:19:30.044Z,19.7368
2023-05-14T03:20:31.876Z,19.7578
2023-05-14T03:21:33.688Z,19.7611
2023-05-14T03:22:35.528Z,19.7697
2023-05-14T03:23:37.397Z,19.7565
2023-05-14T03:24:39.215Z,19.7625
2023-05-14T03:25:41.056Z,19.7641
2023-05-14T03:26:42.938Z,19.7627
2023-05-14T03:27:44.724Z,19.7592
2023-05-14T03:28:46.552Z,19.7584
2023-05-14T03:29:48.378Z,19.7502
2023-05-14T03:30:50.245Z,19.7676
2023-05-14T03:31:52.068Z,19.7609
2023-05-14T03:32:53.961Z,19.7734
2023-05-14T03:33:55.724Z,19.7658
2023-05-14T03:34:57.559Z,19.7555
2023-05-14T03:35:59.402Z,19.7555
2023-05-14T03:37:01.247Z,19.7693
2023-05-14T03:38:03.080Z,19.7812
2023-05-14T03:39:04.957Z,19.7676
2023-05-14T03:40:06.750Z,19.7648
2023-05-14T03:41:08.579Z,19.7442
2023-05-14T03:42:10.409Z,19.7397
2023-05-14T03:43:12.271Z,19.7257
2023-05-14T03:44:14.107Z,19.7138
2023-05-14T03:45:15.979Z,19.7074
2023-05-14T03:46:17.771Z,19.7077
2023-05-14T03:47:19.607Z,19.6953
2023-05-14T03:48:21.536Z,19.6836
2023-05-14T03:49:23.294Z,19.6816
2023-05-14T03:50:25.354Z,19.7040
2023-05-14T03:51:26.977Z,19.6996
2023-05-14T03:52:28.799Z,19.6877
2023-05-14T03:53:30.646Z,19.6812
2023-05-14T03:54:32.488Z,19.6916
2023-05-14T03:55:34.321Z,19.6931
2023-05-14T03:56:36.172Z,19.6846
2023-05-14T03:57:38.040Z,19.6723
2023-05-14T03:58:39.844Z,19.7021
2023-05-14T03:59:41.701Z,19.7081
2023-05-14T04:00:43.546Z,19.6955
2023-05-14T04:01:45.371Z,19.6943
2023-05-14T04:02:47.311Z,19.7181
2023-05-14T04:03:49.211Z,19.7229
2023-05-14T04:04:50.935Z,19.7274
2023-05-14T04:05:52.734Z,19.7150
2023-05-14T04:06:54.578Z,19.7064
2023-05-14T04:07:56.407Z,19.7064
2023-05-14T04:08:58.251Z,19.6898
2023-05-14T04:10:01.793Z,19.6925
2023-05-14T04:11:01.942Z,19.6830
2023-05-14T04:12:03.788Z,19.6918
2023-05-14T04:13:05.622Z,19.7085
2023-05-14T04:14:07.460Z,19.7319
2023-05-14T04:15:09.288Z,19.7494
2023-05-14T04:16:11.180Z,19.7654
2023-05-14T04:17:12.977Z,19.7549
2023-05-14T04:18:14.849Z,19.7477
2023-05-14T04:19:16.749Z,19.7448
2023-05-14T04:20:18.482Z,19.7625
2023-05-14T04:21:20.314Z,19.7537
2023-05-14T04:22:22.175Z,19.7383
2023-05-14T04:23:23.979Z,19.7586
2023-05-14T04:24:25.810Z,19.7588
2023-05-14T04:25:27.648Z,19.7724
2023-05-14T04:26:29.487Z,19.7867
2023-05-14T04:27:31.341Z,19.8083
2023-05-14T04:28:33.201Z,19.7952
2023-05-14T04:29:35.008Z,19.7882
2023-05-14T04:30:36.846Z,19.7717
2023-05-14T04:31:38.708Z,19.7582
2023-05-14T04:32:40.577Z,19.7321
2023-05-14T04:33:42.364Z,19.7344
2023-05-14T04:34:44.221Z,19.7072
2023-05-14T04:35:46.038Z,19.7095
2023-05-14T04:36:47.872Z,19.7467
2023-05-14T04:37:49.717Z,19.7652
2023-05-14T04:38:51.568Z,19.7518
2023-05-14T04:39:53.392Z,19.7448
2023-05-14T04:40:55.252Z,19.7294
2023-05-14T04:41:57.067Z,19.6964
2023-05-14T04:42:58.903Z,19.6820
2023-05-14T04:44:00.729Z,19.6869
2023-05-14T04:45:02.595Z,19.7118
2023-05-14T04:46:04.453Z,19.7358
2023-05-14T04:47:06.267Z,19.7475
2023-05-14T04:48:08.136Z,19.7551
2023-05-14T04:49:09.924Z,19.7600
2023-05-14T04:50:11.767Z,19.7387
2023-05-14T04:51:13.593Z,19.7514
2023-05-14T04:52:15.449Z,19.7592
2023-05-14T04:53:17.306Z,19.7341
2023-05-14T04:54:19.156Z,19.7261
2023-05-14T04:55:20.966Z,19.7418
2023-05-14T04:56:22.807Z,19.7570
2023-05-14T04:57:24.629Z,19.7454
2023-05-14T04:58:26.476Z,19.7335
2023-05-14T04:59:28.346Z,19.7013
2023-05-14T05:00:30.170Z,19.7167
2023-05-14T05:01:32.028Z,19.6990
2023-05-14T05:02:33.877Z,19.7128
2023-05-14T05:03:35.690Z,19.7321
2023-05-14T05:04:37.496Z,19.7422
2023-05-14T05:05:39.373Z,19.7555
2023-05-14T05:06:41.214Z,19.7707
2023-05-14T05:07:43.016Z,19.7572
2023-05-14T05:08:44.852Z,19.7436
2023-05-14T05:09:46.687Z,19.7395
2023-05-14T05:10:48.553Z,19.7337
2023-05-14T05:11:50.406Z,19.7307
2023-05-14T05:12:52.226Z,19.7387
2023-05-14T05:13:54.045Z,19.7278
2023-05-14T05:14:55.881Z,19.7185
2023-05-14T05:15:57.755Z,19.7025
2023-05-14T05:16:59.569Z,19.7099
2023-05-14T05:18:01.441Z,19.6974
2023-05-14T05:19:03.283Z,19.6641
2023-05-14T05:20:05.070Z,19.6814
2023-05-14T05:21:06.920Z,19.6900
2023-05-14T05:22:08.754Z,19.6920
2023-05-14T05:23:10.575Z,19.6964
2023-05-14T05:24:12.441Z,19.7052
2023-05-14T05:25:14.251Z,19.7056
2023-05-14T05:26:16.107Z,19.6890
2023-05-14T05:27:17.934Z,19.6818
2023-05-14T05:28:19.770Z,19.6810
2023-05-14T05:29:21.594Z,19.7091
2023-05-14T05:30:23.680Z,19.7428
2023-05-14T05:31:25.417Z,19.7442
2023-05-14T05:32:27.113Z,19.7452
2023-05-14T05:33:28.958Z,19.7551
2023-05-14T05:34:30.783Z,19.7399
2023-05-14T05:35:32.625Z,19.7561
2023-05-14T05:36:34.473Z,19.7559
2023-05-14T05:37:36.304Z,19.7910
2023-05-14T05:38:38.142Z,19.7958
2023-05-14T05:39:39.986Z,19.7937
2023-05-14T05:40:41.812Z,19.7970
2023-05-14T05:41:43.653Z,19.7919
2023-05-14T05:42:45.518Z,19.7459
2023-05-14T05:43:47.340Z,19.7231
2023-05-14T05:44:49.176Z,19.7253
2023-05-14T05:45:51.046Z,19.7146
2023-05-14T05:46:52.916Z,19.7085
2023-05-14T05:47:54.719Z,19.7381
2023-05-14T05:48:56.547Z,19.7352
2023-05-14T05:49:58.368Z,19.7251
2023-05-14T05:51:00.212Z,19.6883
2023-05-14T05:52:02.033Z,19.7027
2023-05-14T05:53:03.899Z,19.7062
2023-05-14T05:54:05.735Z,19.7132
2023-05-14T05:55:07.596Z,19.7220
2023-05-14T05:56:09.413Z,19.7095
2023-05-14T05:57:11.260Z,19.6951
2023-05-14T05:58:13.101Z,19.6820
2023-05-14T05:59:14.937Z,19.7056
2023-05-14T06:00:16.761Z,19.7017
2023-05-14T06:01:18.647Z,19.7179
2023-05-14T06:02:20.491Z,19.7011
2023-05-14T06:03:22.376Z,19.7021
2023-05-14T06:04:24.141Z,19.7159
2023-05-14T06:05:25.989Z,19.7190
2023-05-14T06:06:27.805Z,19.7087
2023-05-14T06:07:29.697Z,19.7021
2023-05-14T06:08:31.495Z,19.7003
2023-05-14T06:09:33.342Z,19.7356
2023-05-14T06:10:35.184Z,19.7376
2023-05-14T06:11:37.033Z,19.7167
2023-05-14T06:12:38.866Z,19.7150
2023-05-14T06:13:40.704Z,19.7190
2023-05-14T06:14:42.550Z,19.7192
2023-05-14T06:15:44.369Z,19.7138
2023-05-14T06:16:46.216Z,19.7235
2023-05-14T06:17:48.090Z,19.7629
2023-05-14T06:18:49.945Z,19.7500
2023-05-14T06:19:51.752Z,19.7477
2023-05-14T06:20:53.578Z,19.7658
2023-05-14T06:21:55.427Z,19.7541
2023-05-14T06:22:57.265Z,19.7666
2023-05-14T06:23:59.111Z,19.7736
2023-05-14T06:25:00.965Z,19.7641
2023-05-14T06:26:02.813Z,19.7409
2023-05-14T06:27:04.622Z,19.7670
2023-05-14T06:28:06.470Z,19.7553
2023-05-14T06:29:08.321Z,19.7567
2023-05-14T06:30:10.160Z,19.7662
2023-05-14T06:31:11.993Z,19.7535
2023-05-14T06:32:13.999Z,19.7800
2023-05-14T06:33:15.661Z,19.7504
2023-05-14T06:34:17.519Z,19.7496
2023-05-14T06:35:19.354Z,19.7471
2023-05-14T06:36:21.192Z,19.7344
2023-05-14T06:37:23.012Z,19.7278
2023-05-14T06:38:24.864Z,19.7241
2023-05-14T06:39:26.690Z,19.7348
2023-05-14T06:40:28.560Z,19.7609
2023-05-14T06:41:30.391Z,19.7750
2023-05-14T06:42:32.204Z,19.7701
2023-05-14T06:43:34.043Z,19.7563
2023-05-14T06:44:35.899Z,19.7415
2023-05-14T06:45:37.742Z,19.7237
2023-05-14T06:46:39.567Z,19.7317
2023-05-14T06:47:41.491Z,19.7362
2023-05-14T06:48:43.283Z,19.7506
2023-05-14T06:49:45.160Z,19.7438
2023-05-14T06:50:47.029Z,19.7469
2023-05-14T06:51:48.830Z,19.7783
2023-05-14T06:52:50.677Z,19.7678
2023-05-14T06:53:52.527Z,19.7510
2023-05-14T06:54:54.364Z,19.7331
2023-05-14T06:55:56.210Z,19.7087
2023-05-14T06:56:58.060Z,19.7226
2023-05-14T06:57:59.882Z,19.7210
2023-05-14T06:59:01.729Z,19.7266
2023-05-14T07:00:03.905Z,19.7450
2023-05-14T07:01:05.438Z,19.7385
2023-05-14T07:02:07.269Z,19.7639
2023-05-14T07:03:09.214Z,19.7652
2023-05-14T07:04:11.009Z,19.7629
2023-05-14T07:05:12.778Z,19.7685
2023-05-14T07:06:14.612Z,19.7709
2023-05-14T07:07:16.460Z,19.7641
2023-05-14T07:08:18.312Z,19.7530
2023-05-14T07:09:20.175Z,19.7705
2023-05-14T07:10:22.292Z,19.7830
2023-05-14T07:11:23.816Z,19.7884
2023-05-14T07:12:25.654Z,19.7886
2023-05-14T07:13:28.631Z,19.7917
2023-05-14T07:14:29.346Z,19.7917
2023-05-14T07:15:31.215Z,19.7839
2023-05-14T07:16:33.039Z,19.7701
2023-05-14T07:17:34.883Z,19.7350
2023-05-14T07:18:36.741Z,19.7360
2023-05-14T07:19:38.545Z,19.7551
2023-05-14T07:20:40.379Z,19.7588
2023-05-14T07:21:42.240Z,19.7448
2023-05-14T07:22:44.053Z,19.7450
2023-05-14T07:23:45.917Z,19.7393
2023-05-14T07:24:47.745Z,19.7298
2023-05-14T07:25:49.582Z,19.7257
2023-05-14T07:26:51.429Z,19.7385
2023-05-14T07:27:53.268Z,19.7354
2023-05-14T07:28:55.111Z,19.7438
2023-05-14T07:29:56.927Z,19.7253
2023-05-14T07:30:58.805Z,19.7350
2023-05-14T07:32:00.624Z,19.7717
2023-05-14T07:33:02.497Z,19.7524
2023-05-14T07:34:04.426Z,19.7346
2023-05-14T07:35:06.148Z,19.7161
2023-05-14T07:36:07.965Z,19.7138
2023-05-14T07:37:09.804Z,19.7457
2023-05-14T07:38:11.661Z,19.7370
2023-05-14T07:39:13.502Z,19.7313
2023-05-14T07:40:15.374Z,19.7122
2023-05-14T07:41:17.182Z,19.7313
2023-05-14T07:42:31.734Z,19.7487
2023-05-14T07:43:21.858Z,19.7298
2023-05-14T07:44:22.682Z,19.7259
2023-05-14T07:45:24.522Z,19.7224
2023-05-14T07:46:26.398Z,19.7350
2023-05-14T07:47:28.317Z,19.7415
2023-05-14T07:48:30.081Z,19.7473
2023-05-14T07:49:31.880Z,19.7397
2023-05-14T07:50:33.745Z,19.7356
2023-05-14T07:51:35.569Z,19.7471
2023-05-14T07:52:37.438Z,19.7541
2023-05-14T07:53:39.264Z,19.7643
2023-05-14T07:54:41.086Z,19.7703
2023-05-14T07:55:42.939Z,19.7545
2023-05-14T07:56:44.779Z,19.7713
2023-05-14T07:57:46.625Z,19.7921
2023-05-14T07:58:48.500Z,19.7937
2023-05-14T07:59:50.315Z,19.8062
2023-05-14T08:00:52.131Z,19.8171
2023-05-14T08:01:53.990Z,19.8180
2023-05-14T08:02:56.037Z,19.8155
2023-05-14T08:03:57.699Z,19.7913
2023-05-14T08:04:59.526Z,19.7576
2023-05-14T08:06:01.334Z,19.7793
2023-05-14T08:07:03.171Z,19.7828
2023-05-14T08:08:05.007Z,19.7880
2023-05-14T08:09:06.863Z,19.7865
2023-05-14T08:10:08.718Z,19.8023
2023-05-14T08:11:10.630Z,19.8036
2023-05-14T08:12:12.383Z,19.8102
2023-05-14T08:13:14.216Z,19.7984
2023-05-14T08:14:16.069Z,19.7886
2023-05-14T08:15:17.905Z,19.8001
2023-05-14T08:16:19.799Z,19.7902
2023-05-14T08:17:21.633Z,19.7685
2023-05-14T08:18:23.415Z,19.7637
2023-05-14T08:19:25.264Z,19.7828
2023-05-14T08:20:27.528Z,19.7906
2023-05-14T08:21:28.924Z,19.8007
2023-05-14T08:22:30.765Z,19.7919
2023-05-14T08:23:32.665Z,19.8042
2023-05-14T08:24:34.460Z,19.7962
2023-05-14T08:25:36.306Z,19.7773
2023-05-14T08:26:38.135Z,19.7837
2023-05-14T08:27:39.969Z,19.7962
2023-05-14T08:28:41.816Z,19.7773
2023-05-14T08:29:43.712Z,19.7945
2023-05-14T08:30:45.524Z,19.8136
2023-05-14T08:31:47.322Z,19.8270
2023-05-14T08:32:49.208Z,19.8268
2023-05-14T08:33:51.029Z,19.8180
2023-05-14T08:34:52.854Z,19.8229
2023-05-14T08:35:54.712Z,19.8134
2023-05-14T08:36:56.521Z,19.8083
2023-05-14T08:37:58.383Z,19.8293
2023-05-14T08:39:00.220Z,19.8330
2023-05-14T08:40:02.062Z,19.8498
2023-05-14T08:41:03.916Z,19.8473
2023-05-14T08:42:05.751Z,19.8067
2023-05-14T08:43:07.564Z,19.8083
2023-05-14T08:44:09.419Z,19.8095
2023-05-14T08:45:11.263Z,19.7937
2023-05-14T08:46:13.108Z,19.7939
2023-05-14T08:47:14.934Z,19.7993
2023-05-14T08:48:16.929Z,19.7917
2023-05-14T08:49:18.634Z,19.7773
2023-05-14T08:50:21.924Z,19.7947
2023-05-14T08:51:22.328Z,19.8007
2023-05-14T08:52:24.145Z,19.8011
2023-05-14T08:53:25.993Z,19.7841
2023-05-14T08:54:27.854Z,19.8015
2023-05-14T08:55:29.696Z,19.8106
2023-05-14T08:56:31.531Z,19.8147
2023-05-14T08:57:33.398Z,19.8169
2023-05-14T08:58:35.197Z,19.8134
2023-05-14T08:59:37.058Z,19.8182
2023-05-14T09:00:38.911Z,19.8290
2023-05-14T09:01:40.770Z,19.8221
2023-05-14T09:02:42.643Z,19.8167
2023-05-14T09:03:44.466Z,19.8235
2023-05-14T09:04:46.252Z,19.8490
2023-05-14T09:05:48.104Z,19.8486
2023-05-14T09:06:49.966Z,19.8424
2023-05-14T09:07:51.772Z,19.8387
2023-05-14T09:08:53.622Z,19.8192
2023-05-14T09:09:55.508Z,19.7980
2023-05-14T09:10:57.302Z,19.7984
2023-05-14T09:11:59.133Z,19.7962
2023-05-14T09:13:01.003Z,19.8241
2023-05-14T09:14:02.847Z,19.8560
2023-05-14T09:15:04.655Z,19.8438
2023-05-14T09:16:06.497Z,19.8512
2023-05-14T09:17:08.347Z,19.8395
2023-05-14T09:18:10.250Z,19.8533
2023-05-14T09:19:12.134Z,19.8319
2023-05-14T09:20:13.877Z,19.8463
2023-05-14T09:21:15.715Z,19.8420
2023-05-14T09:22:17.562Z,19.8479
2023-05-14T09:23:19.379Z,19.8531
2023-05-14T09:24:21.224Z,19.8599
2023-05-14T09:25:23.098Z,19.8529
2023-05-14T09:26:24.904Z,19.8475
2023-05-14T09:27:26.746Z,19.8555
2023-05-14T09:28:28.596Z,19.8658
2023-05-14T09:29:30.431Z,19.8543
2023-05-14T09:30:32.281Z,19.8539
2023-05-14T09:31:34.200Z,19.8338
2023-05-14T09:32:36.014Z,19.8533
2023-05-14T09:33:37.791Z,19.8436
2023-05-14T09:34:39.632Z,19.8428
2023-05-14T09:35:41.474Z,19.8381
2023-05-14T09:36:43.309Z,19.8338
2023-05-14T09:37:45.138Z,19.8067
2023-05-14T09:38:46.988Z,19.7908
2023-05-14T09:39:48.821Z,19.8032
2023-05-14T09:40:50.663Z,19.8149
2023-05-14T09:41:52.484Z,19.8085
2023-05-14T09:42:54.352Z,19.8151
2023-05-14T09:43:56.160Z,19.8143
2023-05-14T09:44:58.008Z,19.8317
2023-05-14T09:45:59.856Z,19.8155
2023-05-14T09:47:01.692Z,19.8087
2023-05-14T09:48:03.642Z,19.7999
2023-05-14T09:49:05.392Z,19.7855
2023-05-14T09:50:07.208Z,19.7995
2023-05-14T09:51:09.041Z,19.7841
2023-05-14T09:52:10.860Z,19.7900
2023-05-14T09:53:12.692Z,19.7654
2023-05-14T09:54:14.532Z,19.7894
2023-05-14T09:55:16.412Z,19.7919
2023-05-14T09:56:18.222Z,19.7947
2023-05-14T09:57:20.056Z,19.8058
2023-05-14T09:58:21.883Z,19.7989
2023-05-14T09:59:23.715Z,19.7991
2023-05-14T10:00:25.799Z,19.8157
2023-05-14T10:01:27.444Z,19.8149
2023-05-14T10:02:29.272Z,19.7958
2023-05-14T10:03:31.061Z,19.7839
2023-05-14T10:04:33.015Z,19.7689
2023-05-14T10:05:34.750Z,19.7954
2023-05-14T10:06:36.572Z,19.8023
2023-05-14T10:07:38.460Z,19.7806
2023-05-14T10:08:40.353Z,19.7611
2023-05-14T10:09:42.102Z,19.7728
2023-05-14T10:10:43.938Z,19.7908
2023-05-14T10:11:45.774Z,19.7861
2023-05-14T10:12:47.600Z,19.7880
2023-05-14T10:13:49.470Z,19.7952
2023-05-14T10:14:51.291Z,19.7802
2023-05-14T10:15:53.124Z,19.7761
2023-05-14T10:16:54.980Z,19.7773
2023-05-14T10:17:56.812Z,19.7804
2023-05-14T10:18:58.670Z,19.7886
2023-05-14T10:20:00.492Z,19.7960
2023-05-14T10:21:02.308Z,19.7685
2023-05-14T10:22:04.244Z,19.7738
2023-05-14T10:23:05.960Z,19.7785
2023-05-14T10:24:07.809Z,19.7898
2023-05-14T10:25:09.653Z,19.8071
2023-05-14T10:26:11.494Z,19.8196
2023-05-14T10:27:13.317Z,19.8182
2023-05-14T10:28:15.146Z,19.8050
2023-05-14T10:29:16.968Z,19.8171
2023-05-14T10:30:18.940Z,19.8340
2023-05-14T10:31:20.710Z,19.8272
2023-05-14T10:32:22.482Z,19.8410
2023-05-14T10:33:24.324Z,19.8393
2023-05-14T10:34:26.167Z,19.8278
2023-05-14T10:35:28.014Z,19.7845
2023-05-14T10:36:29.845Z,19.7871
2023-05-14T10:37:31.687Z,19.8054
2023-05-14T10:38:33.505Z,19.8196
2023-05-14T10:39:35.346Z,19.8097
2023-05-14T10:40:37.182Z,19.7839
2023-05-14T10:41:39.020Z,19.7923
2023-05-14T10:42:40.891Z,19.8149
2023-05-14T10:43:42.734Z,19.8165
2023-05-14T10:44:44.519Z,19.8251
2023-05-14T10:45:46.372Z,19.8054
2023-05-14T10:46:48.275Z,19.7832
2023-05-14T10:47:50.055Z,19.8161
2023-05-14T10:48:51.870Z,19.8108
2023-05-14T10:49:53.740Z,19.8015
2023-05-14T10:50:55.588Z,19.7947
2023-05-14T10:51:57.397Z,19.8112
2023-05-14T10:52:59.311Z,19.8274
2023-05-14T10:54:01.129Z,19.8340
2023-05-14T10:55:03.845Z,19.8436
2023-05-14T10:56:04.845Z,19.8295
2023-05-14T10:57:06.651Z,19.8344
2023-05-14T10:58:08.487Z,19.8360
2023-05-14T10:59:10.311Z,19.8284
2023-05-14T11:00:12.144Z,19.8056
2023-05-14T11:01:14.001Z,19.7800
2023-05-14T11:02:16.050Z,19.7806
2023-05-14T11:03:17.698Z,19.8122
2023-05-14T11:04:19.637Z,19.8050
2023-05-14T11:05:21.335Z,19.8163
2023-05-14T11:06:23.181Z,19.8282
2023-05-14T11:07:25.023Z,19.8106
2023-05-14T11:08:28.064Z,19.7767
2023-05-14T11:09:28.692Z,19.7685
2023-05-14T11:10:30.516Z,19.7927
2023-05-14T11:11:32.362Z,19.8034
2023-05-14T11:12:34.204Z,19.8260
2023-05-14T11:13:36.033Z,19.8286
2023-05-14T11:14:37.891Z,19.8141
2023-05-14T11:15:39.711Z,19.8190
2023-05-14T11:16:41.563Z,19.8245
2023-05-14T11:17:43.464Z,19.8237
2023-05-14T11:18:45.249Z,19.8342
2023-05-14T11:19:48.343Z,19.8369
2023-05-14T11:20:48.924Z,19.8184
2023-05-14T11:21:50.781Z,19.8243
2023-05-14T11:22:52.571Z,19.8225
2023-05-14T11:23:54.397Z,19.8114
2023-05-14T11:24:56.230Z,19.7954
2023-05-14T11:25:58.112Z,19.7512
2023-05-14T11:26:59.928Z,19.7670
2023-05-14T11:28:01.761Z,19.7750
2023-05-14T11:29:03.606Z,19.7991
2023-05-14T11:30:05.423Z,19.8102
2023-05-14T11:31:07.265Z,19.8151
2023-05-14T11:32:09.210Z,19.8297
2023-05-14T11:33:11.011Z,19.8260
2023-05-14T11:34:12.818Z,19.8247
2023-05-14T11:35:14.630Z,19.8243
2023-05-14T11:36:16.453Z,19.8264
2023-05-14T11:37:18.287Z,19.8212
2023-05-14T11:38:20.129Z,19.8266
2023-05-14T11:39:21.969Z,19.8062
2023-05-14T11:40:23.931Z,19.7839
2023-05-14T11:41:25.630Z,19.8083
2023-05-14T11:42:27.469Z,19.8132
2023-05-14T11:43:29.477Z,19.7798
2023-05-14T11:44:31.172Z,19.7535
2023-05-14T11:45:33.006Z,19.7705
2023-05-14T11:46:34.965Z,19.7859
2023-05-14T11:47:36.730Z,19.7999
2023-05-14T11:48:38.519Z,19.8143
2023-05-14T11:49:40.347Z,19.8260
2023-05-14T11:50:42.181Z,19.8286
2023-05-14T11:51:44.007Z,19.8399
2023-05-14T11:52:45.883Z,19.8451
2023-05-14T11:53:47.693Z,19.8401
2023-05-14T11:54:49.546Z,19.8340
2023-05-14T11:55:51.371Z,19.8371
2023-05-14T11:56:53.195Z,19.8011
2023-05-14T11:57:55.051Z,19.7913
2023-05-14T11:58:56.940Z,19.7989
2023-05-14T11:59:58.732Z,19.8021
2023-05-14T12:01:00.556Z,19.8198
2023-05-14T12:02:02.452Z,19.8214
2023-05-14T12:03:04.384Z,19.8325
2023-05-14T12:04:06.178Z,19.8332
2023-05-14T12:05:07.942Z,19.8330
2023-05-14T12:06:09.745Z,19.8141
2023-05-14T12:07:11.594Z,19.8274
2023-05-14T12:08:13.476Z,19.8410
2023-05-14T12:09:15.281Z,19.8375
2023-05-14T12:10:17.112Z,19.8048
2023-05-14T12:11:18.964Z,19.8175
2023-05-14T12:12:20.784Z,19.8180
2023-05-14T12:13:22.650Z,19.8309
2023-05-14T12:14:24.490Z,19.8336
2023-05-14T12:15:26.326Z,19.8237
2023-05-14T12:16:28.218Z,19.8182
2023-05-14T12:17:30.019Z,19.8254
2023-05-14T12:18:31.970Z,19.8206
2023-05-14T12:19:33.674Z,19.8369
2023-05-14T12:20:35.517Z,19.8155
2023-05-14T12:21:37.368Z,19.8155
2023-05-14T12:22:39.195Z,19.8301
2023-05-14T12:23:41.062Z,19.8325
2023-05-14T12:24:42.908Z,19.8342
2023-05-14T12:25:44.705Z,19.8264
2023-05-14T12:26:46.558Z,19.8325
2023-05-14T12:27:48.400Z,19.8151